createdAt,value
2023-05-10T00:02:25.705Z,51.86
2023-05-10T00:04:52.268Z,51.74
2023-05-10T00:07:18.889Z,51.72
2023-05-10T00:09:46.315Z,51.71
2023-05-10T00:12:12.677Z,51.73
2023-05-10T00:14:39.075Z,51.93
2023-05-10T00:17:05.560Z,51.85
2023-05-10T00:19:32.011Z,52.01
2023-05-10T00:21:58.395Z,52.38
2023-05-10T00:24:24.933Z,52.14
2023-05-10T00:26:51.365Z,52.52
2023-05-10T00:29:18.037Z,52.45
2023-05-10T00:31:44.457Z,52.45
2023-05-10T00:34:11.120Z,52.44
2023-05-10T00:36:37.703Z,52.52
2023-05-10T00:39:04.568Z,52.67
2023-05-10T00:41:34.263Z,52.55
2023-05-10T00:44:01.607Z,52.98
2023-05-10T00:46:28.042Z,53.12
2023-05-10T00:48:55.107Z,53.44
2023-05-10T00:51:21.643Z,53.24
2023-05-10T00:53:49.394Z,53.05
2023-05-10T00:56:16.833Z,53.14
2023-05-10T00:58:43.743Z,53.19
2023-05-10T01:01:11.725Z,53.54
2023-05-10T01:03:38.437Z,53.49
2023-05-10T01:06:05.151Z,53.75
2023-05-10T01:08:31.512Z,53.35
2023-05-10T01:10:58.051Z,53.58
2023-05-10T01:13:32.479Z,53.67
2023-05-10T01:15:59.487Z,53.78
2023-05-10T01:18:26.910Z,53.74
2023-05-10T01:21:06.513Z,53.63
2023-05-10T01:23:54.741Z,54.00
2023-05-10T01:26:29.321Z,53.96
2023-05-10T01:29:06.926Z,53.95
2023-05-10T01:31:52.058Z,54.32
2023-05-10T01:34:24.630Z,54.02
2023-05-10T01:37:04.826Z,54.25
2023-05-10T01:39:37.378Z,54.37
2023-05-10T01:42:15.124Z,54.88
2023-05-10T01:44:53.376Z,54.71
2023-05-10T01:48:07.545Z,54.60
2023-05-10T01:50:36.471Z,54.96
2023-05-10T01:53:06.783Z,55.06
2023-05-10T01:55:37.933Z,55.02
2023-05-10T01:58:10.996Z,55.15
2023-05-10T02:00:40.802Z,55.46
2023-05-10T02:03:09.624Z,55.60
2023-05-10T02:05:37.476Z,55.76
2023-05-10T02:08:06.974Z,55.83
2023-05-10T02:10:35.568Z,55.92
2023-05-10T02:13:03.297Z,55.53
2023-05-10T02:15:30.773Z,56.09
2023-05-10T02:17:59.279Z,56.15
2023-05-10T02:20:27.309Z,56.03
2023-05-10T02:22:56.777Z,56.32
2023-05-10T02:25:24.447Z,56.51
2023-05-10T02:27:52.278Z,56.40
2023-05-10T02:30:20.423Z,56.41
2023-05-10T02:32:49.968Z,56.75
2023-05-10T02:35:20.503Z,56.83
2023-05-10T02:37:48.698Z,56.79
2023-05-10T02:40:18.949Z,57.18
2023-05-10T02:42:49.763Z,56.72
2023-05-10T02:45:20.500Z,57.35
2023-05-10T02:47:47.073Z,57.60
2023-05-10T02:50:13.939Z,57.48
2023-05-10T02:52:45.306Z,57.79
2023-05-10T02:55:15.014Z,58.14
2023-05-10T02:57:52.044Z,58.11
2023-05-10T03:00:18.707Z,57.92
2023-05-10T03:02:45.207Z,58.29
2023-05-10T03:05:11.593Z,58.49
2023-05-10T03:07:38.431Z,58.70
2023-05-10T03:10:06.232Z,58.83
2023-05-10T03:13:03.498Z,58.93
2023-05-10T03:15:45.950Z,59.03
2023-05-10T03:18:22.257Z,59.37
2023-05-10T03:20:52.149Z,59.35
2023-05-10T03:23:35.110Z,59.68
2023-05-10T03:26:02.585Z,59.59
2023-05-10T03:28:29.890Z,59.71
2023-05-10T03:30:57.715Z,59.94
2023-05-10T03:33:24.236Z,59.80
2023-05-10T03:35:50.646Z,59.84
2023-05-10T03:38:17.013Z,60.02
2023-05-10T03:40:43.500Z,60.05
2023-05-10T03:43:09.860Z,60.14
2023-05-10T03:45:36.547Z,59.96
2023-05-10T03:48:02.996Z,60.16
2023-05-10T03:50:29.565Z,60.16
2023-05-10T03:52:56.097Z,60.04
2023-05-10T03:55:23.395Z,59.95
2023-05-10T03:57:50.681Z,60.18
2023-05-10T04:00:17.768Z,60.25
2023-05-10T04:02:46.015Z,60.07
2023-05-10T04:05:13.063Z,60.59
2023-05-10T04:07:39.596Z,60.48
2023-05-10T04:10:06.404Z,60.09
2023-05-10T04:12:32.763Z,60.71
2023-05-10T04:14:59.180Z,60.53
2023-05-10T04:17:25.557Z,60.53
2023-05-10T04:19:53.995Z,60.06
2023-05-10T04:22:20.495Z,59.95
2023-05-10T04:24:46.900Z,60.04
2023-05-10T04:27:13.281Z,59.78
2023-05-10T04:29:39.722Z,60.21
2023-05-10T04:32:06.412Z,59.99
2023-05-10T04:34:35.042Z,59.53
2023-05-10T04:37:01.583Z,59.52
2023-05-10T04:39:27.937Z,59.39
2023-05-10T04:41:54.293Z,59.38
2023-05-10T04:44:20.663Z,59.27
2023-05-10T04:46:47.183Z,59.15
2023-05-10T04:49:13.581Z,59.30
2023-05-10T04:51:40.034Z,58.82
2023-05-10T04:54:07.001Z,58.83
2023-05-10T04:56:33.970Z,58.63
2023-05-10T04:59:00.436Z,58.37
2023-05-10T05:01:26.942Z,58.20
2023-05-10T05:03:53.977Z,58.42
2023-05-10T05:06:21.927Z,58.18
2023-05-10T05:08:50.140Z,57.86
2023-05-10T05:11:17.038Z,57.50
2023-05-10T05:13:43.576Z,57.67
2023-05-10T05:16:10.086Z,57.35
2023-05-10T05:18:36.471Z,57.29
2023-05-10T05:21:02.832Z,57.40
2023-05-10T05:23:29.264Z,57.22
2023-05-10T05:25:55.687Z,57.32
2023-05-10T05:28:22.112Z,57.19
2023-05-10T05:30:48.542Z,57.19
2023-05-10T05:33:16.390Z,57.02
2023-05-10T05:35:45.625Z,56.80
2023-05-10T05:38:12.259Z,56.38
2023-05-10T05:40:38.686Z,56.45
2023-05-10T05:43:05.146Z,56.41
2023-05-10T05:45:31.708Z,56.14
2023-05-10T05:47:58.382Z,55.81
2023-05-10T05:50:24.793Z,55.94
2023-05-10T05:52:51.257Z,56.06
2023-05-10T05:55:17.871Z,55.41
2023-05-10T05:57:44.490Z,55.73
2023-05-10T06:00:11.283Z,55.57
2023-05-10T06:02:37.928Z,55.52
2023-05-10T06:05:04.693Z,55.71
2023-05-10T06:07:31.060Z,55.14
2023-05-10T06:09:57.411Z,54.87
2023-05-10T06:12:23.780Z,55.14
2023-05-10T06:14:50.153Z,54.94
2023-05-10T06:17:16.513Z,54.99
2023-05-10T06:19:42.897Z,55.17
2023-05-10T06:22:09.379Z,54.78
2023-05-10T06:24:35.940Z,54.77
2023-05-10T06:27:02.918Z,54.32
2023-05-10T06:29:29.271Z,54.81
2023-05-10T06:31:55.748Z,54.52
2023-05-10T06:34:22.570Z,54.61
2023-05-10T06:36:49.006Z,54.35
2023-05-10T06:39:15.663Z,53.97
2023-05-10T06:41:42.174Z,53.73
2023-05-10T06:44:09.379Z,54.03
2023-05-10T06:46:36.195Z,54.00
2023-05-10T06:49:02.963Z,53.86
2023-05-10T06:51:29.603Z,53.93
2023-05-10T06:53:56.089Z,53.99
2023-05-10T06:56:22.682Z,53.10
2023-05-10T06:58:49.487Z,52.94
2023-05-10T07:01:16.074Z,52.43
2023-05-10T07:03:42.486Z,52.48
2023-05-10T07:06:15.594Z,52.55
2023-05-10T07:08:48.458Z,52.03
2023-05-10T07:11:14.845Z,52.46
2023-05-10T07:13:44.939Z,52.25
2023-05-10T07:16:11.533Z,52.15
2023-05-10T07:18:38.103Z,52.01
2023-05-10T07:21:04.771Z,52.01
2023-05-10T07:23:31.388Z,51.69
2023-05-10T07:25:58.403Z,51.92
2023-05-10T07:28:27.733Z,51.70
2023-05-10T07:30:54.052Z,51.87
2023-05-10T07:33:20.511Z,51.89
2023-05-10T07:35:47.063Z,52.00
2023-05-10T07:38:13.471Z,51.78
2023-05-10T07:40:40.488Z,51.77
2023-05-10T07:43:06.905Z,51.79
2023-05-10T07:45:34.409Z,51.76
2023-05-10T07:48:01.206Z,51.99
2023-05-10T07:50:27.913Z,51.22
2023-05-10T07:52:54.349Z,51.54
2023-05-10T07:55:22.182Z,51.52
2023-05-10T07:57:48.687Z,51.45
2023-05-10T08:00:18.978Z,51.42
2023-05-10T08:02:45.475Z,51.03
2023-05-10T08:05:11.891Z,51.34
2023-05-10T08:07:38.284Z,51.50
2023-05-10T08:10:05.378Z,51.38
2023-05-10T08:12:31.749Z,50.97
2023-05-10T08:14:58.242Z,51.01
2023-05-10T08:17:24.885Z,51.40
2023-05-10T08:19:51.370Z,50.93
2023-05-10T08:22:17.935Z,51.25
2023-05-10T08:24:44.369Z,50.61
2023-05-10T08:27:10.716Z,50.58
2023-05-10T08:29:48.980Z,50.55
2023-05-10T08:32:16.492Z,50.59
2023-05-10T08:34:42.875Z,50.18
2023-05-10T08:37:09.261Z,50.34
2023-05-10T08:39:36.407Z,50.55
2023-05-10T08:42:05.553Z,50.62
2023-05-10T08:44:33.431Z,50.24
2023-05-10T08:47:03.410Z,49.77
2023-05-10T08:49:32.600Z,50.51
2023-05-10T08:52:00.581Z,50.58
2023-05-10T08:54:27.363Z,50.38
2023-05-10T08:56:54.267Z,50.06
2023-05-10T08:59:20.747Z,49.80
2023-05-10T09:01:50.255Z,49.89
2023-05-10T09:04:17.454Z,50.09
2023-05-10T09:06:44.013Z,49.54
2023-05-10T09:09:10.880Z,49.11
2023-05-10T09:11:37.570Z,49.42
2023-05-10T09:14:04.244Z,49.10
2023-05-10T09:16:30.637Z,49.88
2023-05-10T09:18:57.164Z,49.48
2023-05-10T09:21:23.629Z,49.37
2023-05-10T09:23:51.108Z,49.34
2023-05-10T09:26:18.387Z,49.98
2023-05-10T09:28:57.135Z,49.79
2023-05-10T09:31:25.962Z,49.97
2023-05-10T09:33:53.045Z,49.17
2023-05-10T09:36:19.405Z,49.17
2023-05-10T09:38:50.217Z,49.05
2023-05-10T09:41:18.652Z,49.05
2023-05-10T09:43:45.009Z,49.54
2023-05-10T09:46:12.263Z,49.36
2023-05-10T09:48:47.179Z,49.22
2023-05-10T09:51:21.420Z,49.25
2023-05-10T09:53:48.110Z,48.96
2023-05-10T09:56:15.259Z,48.33
2023-05-10T09:58:41.737Z,49.50
2023-05-10T10:01:13.074Z,48.78
2023-05-10T10:03:43.590Z,48.76
2023-05-10T10:06:18.833Z,49.11
2023-05-10T10:08:56.234Z,48.23
2023-05-10T10:11:24.585Z,47.94
2023-05-10T10:13:50.942Z,48.02
2023-05-10T10:16:17.419Z,47.74
2023-05-10T10:18:44.267Z,47.92
2023-05-10T10:21:11.010Z,47.44
2023-05-10T10:23:37.435Z,47.64
2023-05-10T10:26:05.696Z,46.84
2023-05-10T10:29:13.045Z,47.41
2023-05-10T10:31:48.480Z,47.68
2023-05-10T10:34:27.022Z,47.52
2023-05-10T10:36:54.880Z,47.24
2023-05-10T10:39:22.175Z,47.26
2023-05-10T10:41:55.825Z,47.19
2023-05-10T10:44:31.806Z,47.06
2023-05-10T10:47:07.048Z,47.09
2023-05-10T10:49:34.607Z,47.25
2023-05-10T10:52:30.911Z,47.17
2023-05-10T10:55:15.914Z,47.08
2023-05-10T10:57:42.430Z,46.87
2023-05-10T11:00:32.333Z,46.75
2023-05-10T11:03:15.479Z,47.22
2023-05-10T11:05:44.067Z,46.47
2023-05-10T11:08:17.117Z,47.40
2023-05-10T11:10:52.984Z,47.01
2023-05-10T11:13:32.214Z,47.31
2023-05-10T11:15:59.977Z,47.09
2023-05-10T11:18:32.483Z,47.13
2023-05-10T11:21:01.650Z,47.02
2023-05-10T11:23:48.405Z,47.34
2023-05-10T11:26:15.247Z,46.67
2023-05-10T11:28:45.409Z,47.01
2023-05-10T11:31:14.625Z,46.65
2023-05-10T11:33:52.156Z,46.83
2023-05-10T11:36:20.649Z,46.44
2023-05-10T11:38:48.552Z,46.21
2023-05-10T11:41:17.799Z,45.95
2023-05-10T11:43:47.249Z,46.46
2023-05-10T11:46:14.637Z,46.45
2023-05-10T11:48:42.535Z,46.29
2023-05-10T11:51:09.663Z,45.75
2023-05-10T11:53:36.112Z,45.36
2023-05-10T11:56:10.203Z,45.30
2023-05-10T11:58:38.503Z,45.13
2023-05-10T12:01:06.613Z,44.84
2023-05-10T12:03:33.953Z,45.24
2023-05-10T12:06:01.647Z,44.98
2023-05-10T12:08:29.451Z,45.09
2023-05-10T12:11:06.419Z,45.22
2023-05-10T12:13:32.782Z,45.72
2023-05-10T12:15:59.503Z,45.07
2023-05-10T12:18:29.145Z,45.33
2023-05-10T12:21:03.149Z,44.15
2023-05-10T12:23:29.772Z,45.36
2023-05-10T12:26:04.867Z,44.30
2023-05-10T12:28:32.700Z,43.97
2023-05-10T12:31:00.474Z,43.80
2023-05-10T12:33:26.893Z,44.17
2023-05-10T12:35:54.984Z,43.70
2023-05-10T12:38:38.788Z,43.41
2023-05-10T12:41:08.234Z,42.37
2023-05-10T12:43:35.881Z,42.97
2023-05-10T12:46:12.905Z,43.41
2023-05-10T12:48:40.887Z,43.71
2023-05-10T12:51:10.319Z,43.30
2023-05-10T12:53:37.617Z,43.19
2023-05-10T12:56:04.134Z,43.54
2023-05-10T13:01:02.791Z,43.41
2023-05-10T13:03:29.220Z,43.41
2023-05-10T13:05:55.568Z,43.19
2023-05-10T13:08:21.944Z,42.98
2023-05-10T13:10:48.352Z,43.30
2023-05-10T13:13:15.075Z,43.20
2023-05-10T13:15:41.449Z,43.17
2023-05-10T13:18:07.817Z,42.52
2023-05-10T13:20:34.249Z,42.77
2023-05-10T13:23:00.819Z,42.69
2023-05-10T13:25:27.180Z,42.52
2023-05-10T13:27:53.592Z,42.32
2023-05-10T13:30:19.979Z,42.39
2023-05-10T13:32:46.690Z,41.80
2023-05-10T13:35:13.108Z,41.94
2023-05-10T13:37:39.767Z,41.96
2023-05-10T13:40:07.116Z,41.45
2023-05-10T13:42:34.535Z,41.36
2023-05-10T13:45:02.728Z,41.44
2023-05-10T13:47:29.354Z,41.76
2023-05-10T13:49:56.175Z,41.25
2023-05-10T13:52:22.663Z,41.43
2023-05-10T13:54:49.057Z,41.00
2023-05-10T13:57:17.598Z,40.80
2023-05-10T13:59:43.973Z,40.51
2023-05-10T14:02:10.392Z,39.89
2023-05-10T14:04:36.798Z,40.53
2023-05-10T14:07:03.197Z,40.56
2023-05-10T14:09:29.604Z,39.73
2023-05-10T14:11:56.814Z,40.23
2023-05-10T14:14:23.184Z,39.06
2023-05-10T14:16:49.658Z,39.90
2023-05-10T14:19:16.183Z,39.68
2023-05-10T14:21:42.543Z,39.65
2023-05-10T14:24:08.896Z,39.27
2023-05-10T14:26:35.566Z,39.85
2023-05-10T14:29:02.331Z,40.16
2023-05-10T14:31:31.123Z,40.40
2023-05-10T14:33:58.620Z,40.07
2023-05-10T14:36:25.203Z,40.06
2023-05-10T14:38:51.912Z,39.94
2023-05-10T14:41:18.678Z,39.84
2023-05-10T14:43:45.055Z,39.94
2023-05-10T14:46:11.538Z,43.55
2023-05-10T14:48:38.040Z,45.91
2023-05-10T14:51:04.616Z,47.26
2023-05-10T14:53:31.209Z,47.55
2023-05-10T14:55:58.341Z,48.10
2023-05-10T14:58:24.781Z,49.46
2023-05-10T15:00:51.534Z,51.34
2023-05-10T15:03:18.368Z,51.94
2023-05-10T15:05:45.319Z,52.27
2023-05-10T15:08:13.371Z,52.80
2023-05-10T15:10:40.514Z,53.55
2023-05-10T15:13:06.880Z,53.17
2023-05-10T15:15:33.383Z,54.13
2023-05-10T15:17:59.920Z,54.51
2023-05-10T15:20:26.630Z,54.32
2023-05-10T15:22:53.062Z,55.51
2023-05-10T15:25:19.645Z,55.81
2023-05-10T15:27:46.142Z,56.04
2023-05-10T15:30:13.112Z,55.59
2023-05-10T15:32:40.995Z,57.07
2023-05-10T15:35:08.994Z,56.78
2023-05-10T15:37:35.492Z,56.87
2023-05-10T15:40:04.750Z,56.79
2023-05-10T15:42:32.555Z,56.81
2023-05-10T15:44:59.407Z,56.94
2023-05-10T15:47:27.127Z,57.24
2023-05-10T15:49:53.528Z,56.99
2023-05-10T15:52:21.484Z,56.93
2023-05-10T15:54:47.900Z,57.19
2023-05-10T15:57:14.286Z,57.49
2023-05-10T15:59:40.642Z,57.09
2023-05-10T16:02:08.689Z,56.91
2023-05-10T16:04:35.101Z,57.20
2023-05-10T16:07:01.749Z,57.29
2023-05-10T16:09:28.204Z,57.43
2023-05-10T16:11:54.961Z,57.76
2023-05-10T16:14:22.868Z,57.65
2023-05-10T16:16:49.397Z,58.14
2023-05-10T16:19:16.244Z,58.88
2023-05-10T16:21:42.740Z,58.60
2023-05-10T16:24:09.172Z,59.09
2023-05-10T16:26:40.712Z,59.19
2023-05-10T16:29:08.300Z,59.23
2023-05-10T16:31:35.020Z,59.12
2023-05-10T16:34:01.603Z,59.08
2023-05-10T16:36:29.513Z,59.32
2023-05-10T16:38:56.001Z,59.33
2023-05-10T16:41:22.818Z,59.19
2023-05-10T16:43:49.289Z,59.46
2023-05-10T16:46:16.117Z,59.77
2023-05-10T16:48:42.718Z,60.06
2023-05-10T16:51:09.395Z,59.98
2023-05-10T16:53:36.247Z,59.61
2023-05-10T16:56:03.331Z,60.05
2023-05-10T16:58:29.708Z,59.60
2023-05-10T17:00:56.392Z,59.21
2023-05-10T17:03:22.905Z,59.22
2023-05-10T17:05:49.321Z,59.72
2023-05-10T17:08:16.093Z,59.63
2023-05-10T17:10:42.642Z,59.73
2023-05-10T17:13:10.566Z,59.90
2023-05-10T17:15:38.606Z,60.46
2023-05-10T17:18:05.573Z,60.41
2023-05-10T17:20:32.189Z,60.55
2023-05-10T17:22:58.564Z,60.58
2023-05-10T17:25:24.942Z,60.33
2023-05-10T17:27:51.314Z,60.76
2023-05-10T17:30:22.457Z,61.42
2023-05-10T17:32:48.878Z,61.30
2023-05-10T17:35:15.476Z,62.09
2023-05-10T17:37:42.037Z,62.32
2023-05-10T17:40:09.972Z,62.41
2023-05-10T17:42:36.585Z,62.06
2023-05-10T17:45:03.732Z,61.81
2023-05-10T17:47:30.280Z,62.17
2023-05-10T17:49:57.115Z,62.45
2023-05-10T17:52:23.571Z,62.28
2023-05-10T17:54:49.924Z,64.61
2023-05-10T17:57:16.434Z,65.15
2023-05-10T17:59:42.901Z,66.20
2023-05-10T18:02:09.352Z,66.44
2023-05-10T18:04:35.801Z,67.04
2023-05-10T18:07:02.845Z,67.35
2023-05-10T18:09:29.511Z,67.28
2023-05-10T18:11:55.922Z,67.24
2023-05-10T18:14:38.862Z,67.44
2023-05-10T18:17:07.689Z,67.36
2023-05-10T18:19:34.268Z,67.38
2023-05-10T18:22:00.686Z,67.68
2023-05-10T18:24:38.388Z,67.48
2023-05-10T18:27:06.912Z,66.48
2023-05-10T18:29:33.461Z,66.74
2023-05-10T18:31:59.970Z,66.15
2023-05-10T18:34:26.644Z,66.33
2023-05-10T18:36:53.149Z,66.15
2023-05-10T18:39:19.672Z,66.31
2023-05-10T18:41:46.107Z,66.65
2023-05-10T18:44:12.568Z,66.60
2023-05-10T18:46:39.146Z,66.35
2023-05-10T18:49:06.472Z,66.42
2023-05-10T18:51:32.962Z,67.13
2023-05-10T18:53:59.412Z,67.09
2023-05-10T18:56:25.821Z,67.13
2023-05-10T18:58:52.649Z,67.29
2023-05-10T19:01:19.067Z,67.34
2023-05-10T19:03:45.529Z,67.08
2023-05-10T19:06:11.920Z,67.56
2023-05-10T19:08:38.326Z,67.52
2023-05-10T19:11:04.701Z,67.61
2023-05-10T19:13:31.138Z,67.28
2023-05-10T19:16:06.144Z,67.93
2023-05-10T19:18:32.906Z,68.00
2023-05-10T19:21:01.643Z,68.05
2023-05-10T19:23:29.157Z,67.94
2023-05-10T19:25:55.561Z,68.16
2023-05-10T19:28:21.949Z,68.52
2023-05-10T19:30:50.153Z,69.00
2023-05-10T19:33:19.722Z,69.06
2023-05-10T19:35:46.326Z,68.92
2023-05-10T19:38:12.702Z,68.98
2023-05-10T19:40:39.076Z,69.21
2023-05-10T19:43:05.482Z,69.24
2023-05-10T19:45:34.107Z,69.51
2023-05-10T19:48:01.416Z,69.84
2023-05-10T19:50:27.904Z,69.89
2023-05-10T19:52:54.286Z,70.18
2023-05-10T19:55:31.162Z,70.04
2023-05-10T19:58:00.411Z,70.72
2023-05-10T20:00:27.402Z,70.42
2023-05-10T20:02:54.012Z,71.20
2023-05-10T20:05:21.519Z,70.87
2023-05-10T20:07:47.879Z,70.97
2023-05-10T20:10:15.424Z,71.09
2023-05-10T20:12:41.778Z,70.79
2023-05-10T20:15:08.222Z,70.75
2023-05-10T20:17:35.508Z,71.25
2023-05-10T20:20:02.025Z,71.19
2023-05-10T20:22:28.601Z,71.94
2023-05-10T20:24:56.257Z,71.71
2023-05-10T20:27:23.046Z,72.43
2023-05-10T20:29:49.439Z,72.51
2023-05-10T20:32:16.254Z,72.67
2023-05-10T20:34:42.632Z,72.74
2023-05-10T20:37:09.092Z,72.52
2023-05-10T20:39:35.512Z,72.56
2023-05-10T20:42:01.858Z,72.98
2023-05-10T20:44:28.196Z,73.07
2023-05-10T20:46:54.571Z,73.29
2023-05-10T20:49:21.779Z,73.18
2023-05-10T20:51:48.309Z,73.32
2023-05-10T20:54:14.680Z,73.85
2023-05-10T20:56:41.333Z,74.21
2023-05-10T20:59:07.995Z,74.44
2023-05-10T21:01:34.386Z,74.20
2023-05-10T21:04:00.764Z,73.73
2023-05-10T21:06:27.142Z,74.82
2023-05-10T21:08:53.483Z,74.99
2023-05-10T21:11:19.840Z,75.31
2023-05-10T21:13:46.282Z,75.17
2023-05-10T21:16:12.708Z,75.43
2023-05-10T21:18:39.215Z,75.53
2023-05-10T21:21:05.699Z,75.75
2023-05-10T21:23:34.449Z,75.91
2023-05-10T21:26:05.521Z,75.96
2023-05-10T21:28:31.877Z,76.22
2023-05-10T21:30:58.349Z,77.01
2023-05-10T21:33:24.760Z,76.65
2023-05-10T21:35:51.183Z,76.99
2023-05-10T21:38:17.608Z,77.28
2023-05-10T21:40:43.981Z,76.92
2023-05-10T21:43:11.255Z,76.96
2023-05-10T21:45:38.104Z,77.03
2023-05-10T21:48:04.690Z,77.02
2023-05-10T21:50:31.116Z,77.33
2023-05-10T21:52:57.743Z,77.15
2023-05-10T21:55:24.228Z,77.63
2023-05-10T21:57:51.057Z,77.66
2023-05-10T22:00:19.313Z,77.56
2023-05-10T22:02:46.758Z,77.76
2023-05-10T22:05:13.452Z,77.84
2023-05-10T22:07:39.915Z,78.12
2023-05-10T22:10:07.828Z,78.54
2023-05-10T22:12:34.177Z,77.90
2023-05-10T22:15:10.260Z,78.28
2023-05-10T22:17:39.557Z,78.42
2023-05-10T22:20:09.726Z,78.42
2023-05-10T22:22:36.675Z,78.84
2023-05-10T22:25:03.799Z,78.44
2023-05-10T22:27:30.155Z,78.98
2023-05-10T22:29:56.662Z,78.76
2023-05-10T22:32:23.127Z,79.32
2023-05-10T22:34:49.501Z,79.06
2023-05-10T22:37:17.885Z,79.72
2023-05-10T22:39:48.733Z,79.92
2023-05-10T22:42:15.607Z,79.59
2023-05-10T22:44:42.826Z,79.28
2023-05-10T22:47:09.378Z,79.99
2023-05-10T22:49:36.804Z,79.53
2023-05-10T22:52:03.221Z,79.41
2023-05-10T22:54:29.595Z,79.97
2023-05-10T22:56:56.497Z,79.92
2023-05-10T22:59:23.394Z,80.18
2023-05-10T23:01:49.784Z,80.42
2023-05-10T23:04:16.208Z,80.57
2023-05-10T23:06:42.730Z,80.00
2023-05-10T23:09:09.784Z,80.43
2023-05-10T23:11:36.417Z,80.22
2023-05-10T23:14:03.070Z,79.70
2023-05-10T23:16:29.779Z,79.98
2023-05-10T23:18:56.243Z,80.76
2023-05-10T23:21:22.733Z,80.49
2023-05-10T23:23:49.332Z,80.73
2023-05-10T23:26:16.262Z,81.35
2023-05-10T23:28:42.641Z,80.87
2023-05-10T23:31:09.009Z,81.38
2023-05-10T23:33:35.380Z,81.27
2023-05-10T23:36:01.834Z,81.55
2023-05-10T23:38:28.523Z,80.91
2023-05-10T23:40:54.947Z,81.10
2023-05-10T23:43:21.819Z,81.24
2023-05-10T23:45:58.225Z,81.23
2023-05-10T23:48:25.107Z,81.27
2023-05-10T23:50:51.756Z,81.00
2023-05-10T23:53:18.163Z,81.06
2023-05-10T23:55:45.437Z,80.49
2023-05-10T23:58:12.495Z,81.01
